createdAt,value
2022-09-09T00:01:48.403Z,99.90
2022-09-09T00:04:32.843Z,99.90
2022-09-09T00:07:25.250Z,99.90
2022-09-09T00:09:55.605Z,99.90
2022-09-09T00:12:43.298Z,99.90
2022-09-09T00:15:22.092Z,99.90
2022-09-09T00:18:15.822Z,99.90
2022-09-09T00:20:51.914Z,99.90
2022-09-09T00:23:32.634Z,99.90
2022-09-09T00:26:24.989Z,99.90
2022-09-09T00:29:05.847Z,99.90
2022-09-09T00:31:34.235Z,99.90
2022-09-09T00:34:14.049Z,99.90
2022-09-09T00:36:44.823Z,99.90
2022-09-09T00:39:24.742Z,99.90
2022-09-09T00:41:55.317Z,99.90
2022-09-09T00:44:31.681Z,99.90
2022-09-09T00:47:22.339Z,99.90
2022-09-09T00:50:36.234Z,99.90
2022-09-09T00:53:40.632Z,99.90
2022-09-09T00:56:17.749Z,99.90
2022-09-09T00:59:04.206Z,99.90
2022-09-09T01:01:31.577Z,99.90
2022-09-09T01:04:01.743Z,99.90
2022-09-09T01:06:35.200Z,99.90
2022-09-09T01:09:11.329Z,99.90
2022-09-09T01:12:12.903Z,99.90
2022-09-09T01:14:46.146Z,99.90
2022-09-09T01:17:32.361Z,99.90
2022-09-09T01:20:24.324Z,99.90
2022-09-09T01:23:12.096Z,99.90
2022-09-09T01:25:45.609Z,99.90
2022-09-09T01:28:29.068Z,99.90
2022-09-09T01:31:07.859Z,99.90
2022-09-09T01:33:42.328Z,99.90
2022-09-09T01:36:21.080Z,99.90
2022-09-09T01:38:51.312Z,99.90
2022-09-09T01:41:19.622Z,99.90
2022-09-09T01:44:10.788Z,99.90
2022-09-09T01:46:39.951Z,99.90
2022-09-09T01:49:14.172Z,99.90
2022-09-09T01:51:44.079Z,99.90
2022-09-09T01:54:14.424Z,99.90
2022-09-09T01:57:07.482Z,99.90
2022-09-09T01:59:53.937Z,99.90
2022-09-09T02:02:43.217Z,99.90
2022-09-09T02:05:35.932Z,99.90
2022-09-09T02:08:12.222Z,99.90
2022-09-09T02:11:02.903Z,99.90
2022-09-09T02:13:46.656Z,99.90
2022-09-09T02:16:26.044Z,99.90
2022-09-09T02:19:15.458Z,99.90
2022-09-09T02:22:05.888Z,99.90
2022-09-09T02:24:37.854Z,99.90
2022-09-09T02:27:21.587Z,99.90
2022-09-09T02:29:52.614Z,99.90
2022-09-09T02:32:31.737Z,99.90
2022-09-09T02:35:09.898Z,99.90
2022-09-09T02:37:41.153Z,99.90
2022-09-09T02:40:12.324Z,99.90
2022-09-09T02:42:45.151Z,99.90
2022-09-09T02:45:16.763Z,99.90
2022-09-09T02:48:07.939Z,99.90
2022-09-09T02:50:44.986Z,99.90
2022-09-09T02:53:22.072Z,99.90
2022-09-09T02:55:59.178Z,99.90
2022-09-09T02:58:27.699Z,99.90
2022-09-09T03:01:02.376Z,99.90
2022-09-09T03:03:31.508Z,99.90
2022-09-09T03:06:01.127Z,99.90
2022-09-09T03:08:29.869Z,99.90
2022-09-09T03:11:02.531Z,99.90
2022-09-09T03:13:33.187Z,99.90
2022-09-09T03:16:01.024Z,99.90
2022-09-09T03:18:31.174Z,99.90
2022-09-09T03:20:59.290Z,99.90
2022-09-09T03:23:26.815Z,99.90
2022-09-09T03:25:58.047Z,99.90
2022-09-09T03:28:32.650Z,99.90
2022-09-09T03:31:03.980Z,99.90
2022-09-09T03:33:37.843Z,99.90
2022-09-09T03:36:07.134Z,99.90
2022-09-09T03:38:35.779Z,99.90
2022-09-09T03:41:03.842Z,99.90
2022-09-09T03:43:32.486Z,99.90
2022-09-09T03:46:00.011Z,99.90
2022-09-09T03:48:29.463Z,99.90
2022-09-09T03:50:59.062Z,99.90
2022-09-09T03:53:28.243Z,99.90
2022-09-09T03:56:01.494Z,99.90
2022-09-09T03:58:33.376Z,99.90
2022-09-09T04:01:11.974Z,99.90
2022-09-09T04:03:41.193Z,99.90
2022-09-09T04:06:15.844Z,99.90
2022-09-09T04:08:49.623Z,99.90
2022-09-09T04:11:17.826Z,99.90
2022-09-09T04:13:46.975Z,99.90
2022-09-09T04:16:15.860Z,99.90
2022-09-09T04:18:44.817Z,99.90
2022-09-09T04:21:14.489Z,99.90
2022-09-09T04:23:41.781Z,99.90
2022-09-09T04:26:10.773Z,99.90
2022-09-09T04:28:39.273Z,99.90
2022-09-09T04:31:19.753Z,99.90
2022-09-09T04:33:48.930Z,99.90
2022-09-09T04:36:26.672Z,99.90
2022-09-09T04:38:59.157Z,99.90
2022-09-09T04:41:26.849Z,99.90
2022-09-09T04:43:55.111Z,99.90
2022-09-09T04:46:24.039Z,99.90
2022-09-09T04:48:53.326Z,99.90
2022-09-09T04:51:21.096Z,99.90
2022-09-09T04:53:51.880Z,99.90
2022-09-09T04:56:21.258Z,99.90
2022-09-09T04:58:52.460Z,99.90
2022-09-09T05:01:24.434Z,99.90
2022-09-09T05:03:54.476Z,99.90
2022-09-09T05:06:24.297Z,99.90
2022-09-09T05:08:56.646Z,99.90
2022-09-09T05:11:29.277Z,99.90
2022-09-09T05:14:02.376Z,99.90
2022-09-09T05:16:33.188Z,99.90
2022-09-09T05:19:00.797Z,99.90
2022-09-09T05:21:38.217Z,99.90
2022-09-09T05:24:05.662Z,99.90
2022-09-09T05:26:33.613Z,99.90
2022-09-09T05:29:01.692Z,99.90
2022-09-09T05:31:31.925Z,99.90
2022-09-09T05:34:02.591Z,99.90
2022-09-09T05:36:29.958Z,99.90
2022-09-09T05:38:58.027Z,99.90
2022-09-09T05:41:27.684Z,99.90
2022-09-09T05:43:57.699Z,99.90
2022-09-09T05:46:26.354Z,99.70
2022-09-09T05:48:55.314Z,99.20
2022-09-09T05:51:31.374Z,97.80
2022-09-09T05:54:02.904Z,97.10
2022-09-09T05:56:34.076Z,96.20
2022-09-09T05:59:02.186Z,93.90
2022-09-09T06:01:32.977Z,93.90
2022-09-09T06:04:02.237Z,92.60
2022-09-09T06:06:37.977Z,92.80
2022-09-09T06:09:11.632Z,93.20
2022-09-09T06:11:42.818Z,91.80
2022-09-09T06:14:11.338Z,90.70
2022-09-09T06:16:40.485Z,91.20
2022-09-09T06:19:15.619Z,90.00
2022-09-09T06:21:45.446Z,91.20
2022-09-09T06:24:14.994Z,92.20
2022-09-09T06:26:43.013Z,93.70
2022-09-09T06:29:17.842Z,96.20
2022-09-09T06:31:46.101Z,95.90
2022-09-09T06:34:16.674Z,98.00
2022-09-09T06:36:48.316Z,97.90
2022-09-09T06:39:16.666Z,98.10
2022-09-09T06:41:45.617Z,98.70
2022-09-09T06:44:35.916Z,98.80
2022-09-09T06:47:06.304Z,98.60
2022-09-09T06:49:35.307Z,98.20
2022-09-09T06:52:07.658Z,98.90
2022-09-09T06:54:38.650Z,99.00
2022-09-09T06:57:27.106Z,99.60
2022-09-09T06:59:57.140Z,99.90
2022-09-09T07:02:25.951Z,99.90
2022-09-09T07:04:54.252Z,99.90
2022-09-09T07:07:21.650Z,99.80
2022-09-09T07:09:50.379Z,99.20
2022-09-09T07:12:17.782Z,98.60
2022-09-09T07:14:53.123Z,97.10
2022-09-09T07:17:20.460Z,94.00
2022-09-09T07:19:48.676Z,90.70
2022-09-09T07:22:17.530Z,92.90
2022-09-09T07:24:46.230Z,91.40
2022-09-09T07:27:14.951Z,91.70
2022-09-09T07:29:42.847Z,92.40
2022-09-09T07:32:11.160Z,92.90
2022-09-09T07:34:39.302Z,93.10
2022-09-09T07:37:10.118Z,94.00
2022-09-09T07:39:40.531Z,93.60
2022-09-09T07:42:08.103Z,94.80
2022-09-09T07:44:37.543Z,95.20
2022-09-09T07:47:09.656Z,95.30
2022-09-09T07:49:44.428Z,96.00
2022-09-09T07:52:14.859Z,96.20
2022-09-09T07:54:47.080Z,96.90
2022-09-09T07:57:16.636Z,95.70
2022-09-09T07:59:44.125Z,95.20
2022-09-09T08:02:13.191Z,94.00
2022-09-09T08:04:41.465Z,93.80
2022-09-09T08:07:09.012Z,93.60
2022-09-09T08:09:45.024Z,93.60
2022-09-09T08:12:19.543Z,92.70
2022-09-09T08:14:46.904Z,92.80
2022-09-09T08:17:14.137Z,93.50
2022-09-09T08:19:43.039Z,93.00
2022-09-09T08:22:14.783Z,92.70
2022-09-09T08:24:42.246Z,92.90
2022-09-09T08:27:11.087Z,92.40
2022-09-09T08:29:40.053Z,93.30
2022-09-09T08:32:07.582Z,93.30
2022-09-09T08:34:41.383Z,91.60
2022-09-09T08:37:13.479Z,91.70
2022-09-09T08:39:42.740Z,91.70
2022-09-09T08:42:44.595Z,91.10
2022-09-09T08:45:22.064Z,91.30
2022-09-09T08:48:01.590Z,90.50
2022-09-09T08:50:32.819Z,90.90
2022-09-09T08:53:26.145Z,90.90
2022-09-09T08:56:00.891Z,91.00
2022-09-09T08:58:54.449Z,90.60
2022-09-09T09:01:44.098Z,90.10
2022-09-09T09:04:39.961Z,88.60
2022-09-09T09:07:32.837Z,87.90
2022-09-09T09:10:42.611Z,86.40
2022-09-09T09:13:22.285Z,88.80
2022-09-09T09:16:01.819Z,86.00
2022-09-09T09:18:29.959Z,83.90
2022-09-09T09:21:35.889Z,84.80
2022-09-09T09:24:05.775Z,83.40
2022-09-09T09:26:36.722Z,85.20
2022-09-09T09:29:14.199Z,85.50
2022-09-09T09:31:50.267Z,84.60
2022-09-09T09:34:20.013Z,85.50
2022-09-09T09:36:56.821Z,86.10
2022-09-09T09:42:24.799Z,84.00
2022-09-09T09:44:54.867Z,83.90
2022-09-09T09:47:28.087Z,84.40
2022-09-09T09:50:20.515Z,84.90
2022-09-09T09:53:03.411Z,83.70
2022-09-09T09:55:36.027Z,84.00
2022-09-09T09:58:08.352Z,84.10
2022-09-09T10:00:50.337Z,83.80
2022-09-09T10:03:27.882Z,84.00
2022-09-09T10:05:57.480Z,83.80
2022-09-09T10:08:29.252Z,84.70
2022-09-09T10:11:02.841Z,84.50
2022-09-09T10:13:34.188Z,83.20
2022-09-09T10:16:20.504Z,83.50
2022-09-09T10:19:26.262Z,83.60
2022-09-09T10:22:15.269Z,83.80
2022-09-09T10:24:48.562Z,82.30
2022-09-09T10:27:40.989Z,78.10
2022-09-09T10:30:25.319Z,76.20
2022-09-09T10:33:03.582Z,75.60
2022-09-09T10:35:37.950Z,73.40
2022-09-09T10:38:37.775Z,73.30
2022-09-09T10:41:11.249Z,69.90
2022-09-09T10:44:02.081Z,68.50
2022-09-09T10:47:08.226Z,65.50
2022-09-09T10:50:07.433Z,65.40
2022-09-09T10:53:01.378Z,63.60
2022-09-09T10:55:52.086Z,64.20
2022-09-09T10:58:26.639Z,62.90
2022-09-09T11:01:03.520Z,63.70
2022-09-09T11:03:34.603Z,61.60
2022-09-09T11:06:19.528Z,61.50
2022-09-09T11:08:47.578Z,60.70
2022-09-09T11:11:31.068Z,60.80
2022-09-09T11:14:21.781Z,62.20
2022-09-09T11:17:06.026Z,62.40
2022-09-09T11:19:36.333Z,61.10
2022-09-09T11:22:30.560Z,60.30
2022-09-09T11:25:01.489Z,60.80
2022-09-09T11:27:33.056Z,60.70
2022-09-09T11:30:37.631Z,60.10
2022-09-09T11:33:38.798Z,60.10
2022-09-09T11:36:31.431Z,60.70
2022-09-09T11:39:22.777Z,60.20
2022-09-09T11:41:50.686Z,57.80
2022-09-09T11:44:28.970Z,57.40
2022-09-09T11:46:56.339Z,56.80
2022-09-09T11:49:43.406Z,58.10
2022-09-09T11:52:43.858Z,57.80
2022-09-09T11:55:28.232Z,57.90
2022-09-09T11:58:15.131Z,58.60
2022-09-09T12:00:51.150Z,57.90
2022-09-09T12:03:54.015Z,57.20
2022-09-09T12:06:41.041Z,58.10
2022-09-09T12:09:18.324Z,58.60
2022-09-09T12:11:45.691Z,56.10
2022-09-09T12:14:37.555Z,57.60
2022-09-09T12:17:17.775Z,57.40
2022-09-09T12:19:46.737Z,56.60
2022-09-09T12:22:49.737Z,57.20
2022-09-09T12:25:25.957Z,57.80
2022-09-09T12:28:09.902Z,57.50
2022-09-09T12:30:50.196Z,56.10
2022-09-09T12:33:21.108Z,57.60
2022-09-09T12:35:56.638Z,58.00
2022-09-09T12:38:44.505Z,58.80
2022-09-09T12:41:23.429Z,57.70
2022-09-09T12:43:51.972Z,57.40
2022-09-09T12:46:47.733Z,56.80
2022-09-09T12:49:39.633Z,56.90
2022-09-09T12:52:17.476Z,57.30
2022-09-09T12:54:52.661Z,57.30
2022-09-09T12:57:23.082Z,58.40
2022-09-09T12:59:50.406Z,57.80
2022-09-09T13:02:35.589Z,57.40
2022-09-09T13:05:19.113Z,58.00
2022-09-09T13:07:46.493Z,57.80
2022-09-09T13:10:21.492Z,58.80
2022-09-09T13:12:59.453Z,59.10
2022-09-09T13:15:30.096Z,59.40
2022-09-09T13:18:07.447Z,59.50
2022-09-09T13:20:34.961Z,58.70
2022-09-09T13:23:03.404Z,57.80
2022-09-09T13:25:31.408Z,57.90
2022-09-09T13:28:06.635Z,59.20
2022-09-09T13:30:41.425Z,59.80
2022-09-09T13:33:15.663Z,59.80
2022-09-09T13:36:06.647Z,58.90
2022-09-09T13:38:39.442Z,58.60
2022-09-09T13:41:09.792Z,58.40
2022-09-09T13:43:45.833Z,60.00
2022-09-09T13:46:41.468Z,60.00
2022-09-09T13:49:11.550Z,59.80
2022-09-09T13:51:43.426Z,60.20
2022-09-09T13:54:12.261Z,60.50
2022-09-09T13:56:41.524Z,59.90
2022-09-09T13:59:17.344Z,61.90
2022-09-09T14:01:45.467Z,61.70
2022-09-09T14:04:13.439Z,61.10
2022-09-09T14:06:41.458Z,60.80
2022-09-09T14:09:11.882Z,60.50
2022-09-09T14:11:39.559Z,62.20
2022-09-09T14:14:06.869Z,63.50
2022-09-09T14:16:34.654Z,63.90
2022-09-09T14:19:02.339Z,64.30
2022-09-09T14:21:29.888Z,64.50
2022-09-09T14:23:59.155Z,64.30
2022-09-09T14:26:27.424Z,65.40
2022-09-09T14:28:56.143Z,65.70
2022-09-09T14:31:27.116Z,67.30
2022-09-09T14:33:54.635Z,67.70
2022-09-09T14:36:22.184Z,69.10
2022-09-09T14:38:49.711Z,69.40
2022-09-09T14:41:19.679Z,69.90
2022-09-09T14:43:47.732Z,70.50
2022-09-09T14:46:19.949Z,70.20
2022-09-09T14:48:51.066Z,69.80
2022-09-09T14:51:20.813Z,71.10
2022-09-09T14:53:48.290Z,72.00
2022-09-09T14:56:22.312Z,71.60
2022-09-09T14:58:50.436Z,72.00
2022-09-09T15:01:20.392Z,71.90
2022-09-09T15:03:57.226Z,71.90
2022-09-09T15:06:25.934Z,72.60
2022-09-09T15:08:54.789Z,73.50
2022-09-09T15:11:25.751Z,73.30
2022-09-09T15:13:54.391Z,73.70
2022-09-09T15:16:23.698Z,73.30
2022-09-09T15:18:55.268Z,73.50
2022-09-09T15:21:25.824Z,74.30
2022-09-09T15:23:54.738Z,74.40
2022-09-09T15:26:22.312Z,75.50
2022-09-09T15:28:51.855Z,76.00
2022-09-09T15:31:29.430Z,76.00
2022-09-09T15:34:04.278Z,73.80
2022-09-09T15:36:34.929Z,74.70
2022-09-09T15:39:03.865Z,73.80
2022-09-09T15:41:32.778Z,74.30
2022-09-09T15:44:01.629Z,75.50
2022-09-09T15:46:39.635Z,75.00
2022-09-09T15:49:12.524Z,74.90
2022-09-09T15:51:43.858Z,75.40
2022-09-09T15:54:18.587Z,76.10
2022-09-09T15:56:47.748Z,77.00
2022-09-09T15:59:15.919Z,77.20
2022-09-09T16:01:45.158Z,76.70
2022-09-09T16:04:13.281Z,76.90
2022-09-09T16:06:41.053Z,77.30
2022-09-09T16:09:09.336Z,77.60
2022-09-09T16:11:39.316Z,78.30
2022-09-09T16:14:07.799Z,78.70
2022-09-09T16:16:36.441Z,79.00
2022-09-09T16:19:10.610Z,80.10
2022-09-09T16:21:43.922Z,81.10
2022-09-09T16:24:14.062Z,81.10
2022-09-09T16:26:47.875Z,81.00
2022-09-09T16:29:16.825Z,82.60
2022-09-09T16:31:45.037Z,83.70
2022-09-09T16:34:12.720Z,84.40
2022-09-09T16:36:41.779Z,84.60
2022-09-09T16:39:12.700Z,85.70
2022-09-09T16:41:41.574Z,85.00
2022-09-09T16:44:11.080Z,85.10
2022-09-09T16:46:43.515Z,86.40
2022-09-09T16:49:13.857Z,87.20
2022-09-09T16:51:44.833Z,87.10
2022-09-09T16:54:15.265Z,87.70
2022-09-09T16:56:47.712Z,87.60
2022-09-09T16:59:20.534Z,88.50
2022-09-09T17:01:51.407Z,89.10
2022-09-09T17:04:26.503Z,89.40
2022-09-09T17:06:55.690Z,90.00
2022-09-09T17:09:24.452Z,90.50
2022-09-09T17:11:53.380Z,90.20
2022-09-09T17:14:23.672Z,90.60
2022-09-09T17:16:51.209Z,91.10
2022-09-09T17:19:18.867Z,91.50
2022-09-09T17:24:36.585Z,92.30
2022-09-09T17:27:04.849Z,93.10
2022-09-09T17:29:32.218Z,92.90
2022-09-09T17:31:59.536Z,93.20
2022-09-09T17:34:27.072Z,93.80
2022-09-09T17:36:54.437Z,94.10
2022-09-09T17:39:21.787Z,94.80
2022-09-09T17:41:49.911Z,95.20
2022-09-09T17:44:17.491Z,95.40
2022-09-09T17:46:46.461Z,96.20
2022-09-09T17:49:16.532Z,96.50
2022-09-09T17:51:45.070Z,97.00
2022-09-09T17:54:15.931Z,97.40
2022-09-09T17:56:43.749Z,97.60
2022-09-09T17:59:16.054Z,97.60
2022-09-09T18:01:46.241Z,97.80
2022-09-09T18:04:15.549Z,98.10
2022-09-09T18:06:46.541Z,98.50
2022-09-09T18:09:19.760Z,98.70
2022-09-09T18:11:50.161Z,98.90
2022-09-09T18:14:20.474Z,98.70
2022-09-09T18:16:48.910Z,99.00
2022-09-09T18:19:21.811Z,99.20
2022-09-09T18:21:49.786Z,99.30
2022-09-09T18:24:18.969Z,99.90
2022-09-09T18:26:48.346Z,99.90
2022-09-09T18:29:20.113Z,99.90
2022-09-09T18:31:48.547Z,99.90
2022-09-09T18:34:18.901Z,99.90
2022-09-09T18:36:48.959Z,99.90
2022-09-09T18:39:18.800Z,99.90
2022-09-09T18:41:52.355Z,99.90
2022-09-09T18:44:21.114Z,99.90
2022-09-09T18:46:49.345Z,99.90
2022-09-09T18:49:17.000Z,99.90
2022-09-09T18:51:46.655Z,99.90
2022-09-09T18:54:20.884Z,99.90
2022-09-09T18:56:48.970Z,99.90
2022-09-09T18:59:21.895Z,99.90
2022-09-09T19:02:04.592Z,99.90
2022-09-09T19:04:33.216Z,99.90
2022-09-09T19:07:00.899Z,99.90
2022-09-09T19:09:31.847Z,99.90
2022-09-09T19:12:01.055Z,99.90
2022-09-09T19:14:29.385Z,99.90
2022-09-09T19:16:56.981Z,99.90
2022-09-09T19:19:27.266Z,99.90
2022-09-09T19:21:58.026Z,99.90
2022-09-09T19:24:28.398Z,99.90
2022-09-09T19:26:58.951Z,99.90
2022-09-09T19:29:31.133Z,99.90
2022-09-09T19:34:55.911Z,99.90
2022-09-09T19:37:23.294Z,99.90
2022-09-09T19:39:50.847Z,99.90
2022-09-09T19:42:18.343Z,99.90
2022-09-09T19:44:46.661Z,99.90
2022-09-09T19:47:15.269Z,99.90
2022-09-09T19:49:46.757Z,99.90
2022-09-09T19:52:16.078Z,99.90
2022-09-09T19:54:43.601Z,99.90
2022-09-09T19:57:11.553Z,99.90
2022-09-09T19:59:38.872Z,99.90
2022-09-09T20:02:06.341Z,99.90
2022-09-09T20:04:35.381Z,99.90
2022-09-09T20:07:02.787Z,99.90
2022-09-09T20:09:30.614Z,99.90
2022-09-09T20:11:58.039Z,99.90
2022-09-09T20:14:25.498Z,99.90
2022-09-09T20:16:52.989Z,99.90
2022-09-09T20:19:20.286Z,99.90
2022-09-09T20:21:49.633Z,99.90
2022-09-09T20:24:19.789Z,99.90
2022-09-09T20:26:49.098Z,99.90
2022-09-09T20:29:20.036Z,99.90
2022-09-09T20:31:48.465Z,99.90
2022-09-09T20:34:19.153Z,99.90
2022-09-09T20:36:47.371Z,99.90
2022-09-09T20:39:22.691Z,99.90
2022-09-09T20:41:50.533Z,99.90
2022-09-09T20:44:22.470Z,99.90
2022-09-09T20:46:56.329Z,99.90
2022-09-09T20:49:24.543Z,99.90
2022-09-09T20:51:53.423Z,99.90
2022-09-09T20:54:26.541Z,99.90
2022-09-09T20:56:55.532Z,99.90
2022-09-09T20:59:24.795Z,99.90
2022-09-09T21:01:53.288Z,99.90
2022-09-09T21:04:22.364Z,99.90
2022-09-09T21:06:51.313Z,99.90
2022-09-09T21:09:19.573Z,99.90
2022-09-09T21:11:47.380Z,99.90
2022-09-09T21:14:15.015Z,99.90
2022-09-09T21:16:42.421Z,99.90
2022-09-09T21:19:09.718Z,99.90
2022-09-09T21:21:37.394Z,99.90
2022-09-09T21:24:04.921Z,99.90
2022-09-09T21:26:32.286Z,99.90
2022-09-09T21:28:59.659Z,99.90
2022-09-09T21:31:28.215Z,99.90
2022-09-09T21:34:00.139Z,99.90
2022-09-09T21:36:28.695Z,99.90
2022-09-09T21:38:59.299Z,99.90
2022-09-09T21:41:26.829Z,99.90
2022-09-09T21:43:54.903Z,99.90
2022-09-09T21:46:23.679Z,99.90
2022-09-09T21:48:51.182Z,99.90
2022-09-09T21:51:19.391Z,99.90
2022-09-09T21:53:46.764Z,99.90
2022-09-09T21:56:19.180Z,99.90
2022-09-09T21:58:47.430Z,99.90
2022-09-09T22:01:17.087Z,99.90
2022-09-09T22:03:45.864Z,99.90
2022-09-09T22:06:18.775Z,99.90
2022-09-09T22:08:47.138Z,99.90
2022-09-09T22:11:20.761Z,99.90
2022-09-09T22:13:48.475Z,99.90
2022-09-09T22:16:19.207Z,99.90
2022-09-09T22:18:52.764Z,99.90
2022-09-09T22:21:20.222Z,99.90
2022-09-09T22:23:55.536Z,99.90
2022-09-09T22:26:24.178Z,99.90
2022-09-09T22:28:54.018Z,99.90
2022-09-09T22:31:23.029Z,99.90
2022-09-09T22:33:51.956Z,99.90
2022-09-09T22:36:20.497Z,99.90
2022-09-09T22:38:51.989Z,99.90
2022-09-09T22:41:20.437Z,99.90
2022-09-09T22:43:48.547Z,99.90
2022-09-09T22:46:16.600Z,99.90
2022-09-09T22:48:44.002Z,99.90
2022-09-09T22:51:14.379Z,99.90
2022-09-09T22:53:43.183Z,99.90
2022-09-09T22:56:17.410Z,99.90
2022-09-09T22:58:46.251Z,99.90
2022-09-09T23:01:24.217Z,99.90
2022-09-09T23:03:52.237Z,99.90
2022-09-09T23:06:22.623Z,99.90
2022-09-09T23:08:53.867Z,99.90
2022-09-09T23:11:21.655Z,99.90
2022-09-09T23:13:52.700Z,99.90
2022-09-09T23:16:23.969Z,99.90
2022-09-09T23:18:58.187Z,99.90
2022-09-09T23:21:28.378Z,99.90
2022-09-09T23:23:57.402Z,99.90
2022-09-09T23:26:26.757Z,99.90
2022-09-09T23:28:56.103Z,99.90
2022-09-09T23:31:25.037Z,99.90
2022-09-09T23:33:54.551Z,99.90
2022-09-09T23:36:24.987Z,99.90
2022-09-09T23:38:54.619Z,99.90
2022-09-09T23:41:22.471Z,99.90
2022-09-09T23:43:52.369Z,99.90
2022-09-09T23:46:23.953Z,99.90
2022-09-09T23:48:51.970Z,99.90
2022-09-09T23:51:24.199Z,99.90
2022-09-09T23:53:54.135Z,99.90
2022-09-09T23:56:23.399Z,99.90
2022-09-09T23:58:53.770Z,99.90
